Tiempo atmosférico en la estación meteorológica de Campos, Salines Llevant, Illes Balears (3 m.)



Fecha
DESCASC
Temp. máxima en grados centígrados (hora)
DESCASC
Temp. mínima en grados centígrados (hora)
DESCASC
Temp. media en grados centígrados
DESCASC
Racha de viento máxima en m/sg (hora)
DESCASC
Velocidad máxima media en intervalos de 10 minutos(hora)
DESCASC
Precipitaciones diarias en mm
DESCASC
Precipitaciones de 00:00 a 06:00 en mm
DESCASC
Precipitaciones de 06:00 a 12:00 en mm
DESCASC
Precipitaciones de 12:00 a 18:00 en mm
DESCASC
Precipitaciones de 18:00 a 24:00 en mm
DESCASC
26-04-2019 19.7 (18:50) 11.2 (00:00) 15.5 11.39 (14:30) 8.61 (14:30) 0 0 0 0 0
27-04-2019 19.3 (15:10) 5.5 (00:00) 12.4 9.17 (15:40) 7.22 (15:40) 0 0 0 0 0
28-04-2019 19.7 (12:20) 6.1 (00:00) 12.9 11.67 (14:40) 7.78 (13:30) 0 0 0 0 0
29-04-2019 20.6 (13:50) 7.3 (00:00) 14 9.17 (15:40) 5.28 (14:00) 0 0 0 0 0
30-04-2019 20.4 (12:00) 5.6 (00:00) 13 8.89 (14:40) 5.83 (12:40) 0 0 0 0 0
01-05-2019 21.1 (14:30) 5.1 (00:00) 13.1 7.78 (16:30) 5 (15:40) 0 0 0 0 0
02-05-2019 21.9 (16:20) 9.2 (02:40) 15.5 8.89 (18:20) 5.56 (18:20) 0 0 0 0 0
03-05-2019 21.5 (15:50) 11.3 (00:00) 16.4 12.78 (16:00) 6.94 (16:20) 13.4 0 0 0 13.4
04-05-2019 20.4 (14:00) 11.7 (00:00) 16 11.11 (17:50) 8.61 (17:50) 0.8 0.8 0 0 0
05-05-2019 20.2 (13:00) 11.8 (00:00) 16 13.33 (03:40) 7.5 (09:50) 0 0 0 0 0
06-05-2019 20.8 (15:20) 9.9 (00:00) 15.3 9.17 (13:30) 5.28 (13:20) 0 0 0 0 0
07-05-2019 21.7 (14:50) 7.5 (00:00) 14.6 9.44 (15:20) 6.11 (16:00) 0 0 0 0 0
08-05-2019 20.7 (15:00) 12.6 (00:00) 16.7 9.44 (14:20) 6.11 (13:20) 0 0 0 0 0
09-05-2019 24.3 (11:20) 14.1 (00:00) 19.2 12.78 (05:10) 8.61 (05:30) 0 0 0 0 0
10-05-2019 22.9 (15:40) 13.5 (00:00) 18.2 9.44 (14:50) 5.56 (17:10) 0 0 0 0 0
11-05-2019 27.2 (13:50) 13.3 (00:00) 20.3 11.39 (16:30) 8.33 (16:30) 0 0 0 0 0
12-05-2019 21 (10:40) 10.6 (00:00) 15.8 13.33 (13:00) 10 (13:20) 0 0 0 0 0
13-05-2019 21 (16:30) 8.1 (00:00) 14.6 13.33 (11:40) 10 (12:10) 0 0 0 0 0
14-05-2019 23.9 (14:10) 6.9 (00:00) 15.4 10.83 (11:50) 6.67 (12:30) 0 0 0 0 0
15-05-2019 23.2 (15:40) 6.9 (00:00) 15.1 10.56 (16:00) 7.22 (17:10) 0 0 0 0 0
16-05-2019 21 (14:50) 7.7 (00:00) 14.3 9.17 (14:00) 6.11 (18:30) 0 0 0 0 0
17-05-2019 21.1 (11:50) 12 (00:00) 16.6 19.72 (17:00) 14.17 (16:50) 0 0 0 0 0
18-05-2019 19.9 (15:10) 11.1 (00:00) 15.5 9.72 (12:20) 7.22 (12:20) 0 0 0 0 0
19-05-2019 20 (15:10) 8.5 (00:00) 14.3 12.5 (17:50) 9.44 (17:00) 0 0 0 0 0
20-05-2019 20.6 (10:30) 8.2 (06:30) 14.4 13.89 (15:40) 8.89 (15:00) 0 0 0 0 0
21-05-2019 23.6 (11:30) 9 (06:10) 16.3 8.33 (12:10) 6.11 (12:00) 0 0 0 0 0
22-05-2019 25 (14:50) 8.8 (06:40) 16.9 7.78 (15:20) 5.28 (15:40) 0 0 0 0 0
23-05-2019 -- (--) -- (--) -- -- (--) -- (--) -- 0 0 -- 0

Gráficas

Temp. máximas Temp. mínimas Temp. medias Precipitaciones Rachas de viento máximas Velocidades máximas media en intervalos de 10 minutos

Datos horarios

Fecha y hora oficial Temperatura (ºC) Velocidad del viento (km/h) Dirección del viento Racha (km/h) Dirección de racha Precipitación (mm) Presión (hPa) Tendencia (hPa) Humedad (%)
2019-05-25 23:00:00 17.3 6 Noroeste 10 Norte 0 -- -- 84
2019-05-25 22:00:00 17.3 8 Norte 24 Norte 0 -- -- 82
2019-05-25 21:00:00 17.9 15 Nordeste 24 Nordeste 0 -- -- 79
2019-05-25 20:00:00 18.5 14 Nordeste 23 Nordeste 0 -- -- 76
2019-05-25 19:00:00 18.7 18 Nordeste 30 Nordeste 0 -- -- 75
2019-05-25 18:00:00 19.3 19 Nordeste 34 Norte 0 -- -- 75
2019-05-25 17:00:00 19.3 18 Nordeste 30 Nordeste 0 -- -- 78
2019-05-25 16:00:00 18.4 19 Nordeste 33 Nordeste 0 -- -- 82
2019-05-25 15:00:00 17.7 11 Nordeste 28 Nordeste 1.6 -- -- 91
2019-05-25 14:00:00 18.7 15 Nordeste 21 Nordeste 0 -- -- 81
2019-05-25 13:00:00 17.5 5 Nordeste 14 Nordeste 0 -- -- 89
2019-05-25 12:00:00 15.8 5 Nordeste 12 Este 3 -- -- 95
2019-05-25 11:00:00 15.3 6 Este 12 Este 15.6 -- -- 95
2019-05-25 10:00:00 16.1 4 Sudeste 8 Nordeste 2.4 -- -- 96
2019-05-25 09:00:00 15.6 4 Nordeste 12 Nordeste 0.6 -- -- 97
2019-05-25 08:00:00 15.4 6 Nordeste 12 Nordeste 5.8 -- -- 96
2019-05-25 07:00:00 15.6 5 Este 12 Nordeste 2.2 -- -- 95
2019-05-25 06:00:00 15.6 8 Nordeste 14 Nordeste 0 -- -- 93
2019-05-25 05:00:00 15.5 8 Nordeste 12 Nordeste 0 -- -- 93
2019-05-25 04:00:00 15.4 5 Nordeste 11 Nordeste 0 -- -- 94
2019-05-25 03:00:00 15.1 4 Norte 6 Norte 0 -- -- 95
2019-05-25 02:00:00 14.7 3 Norte 10 Nordeste 0 -- -- 94
2019-05-25 01:00:00 14.6 8 Nordeste 14 Nordeste 0 -- -- 92
2019-05-25 00:00:00 14.9 7 Nordeste 13 Nordeste 0 -- -- 91
2019-05-24 23:00:00 15.2 8 Nordeste 15 Nordeste 0 -- -- 92
2019-05-24 22:00:00 15.7 8 Nordeste 15 Nordeste 0 -- -- 92
2019-05-24 21:00:00 16 9 Nordeste 12 Nordeste 0.2 -- -- 91
2019-05-24 20:00:00 15.9 7 Nordeste 17 Nordeste 0 -- -- 88
2019-05-24 19:00:00 16 8 Nordeste 15 Norte 0.2 -- -- 90
2019-05-24 18:00:00 16.8 11 Norte 18 Norte 0.2 -- -- 83
2019-05-24 17:00:00 17.7 13 Norte 18 Norte 0 -- -- 77
2019-05-24 16:00:00 17.7 13 Norte 22 Noroeste 0.2 -- -- 79
2019-05-24 15:00:00 18.5 10 Noroeste 15 Noroeste 0.4 -- -- 82
2019-05-24 14:00:00 18.8 3 Sur 15 Sudoeste 1.4 -- -- 77
2019-05-24 13:00:00 22.5 10 Sudoeste 17 Sudoeste 0 -- -- 47
2019-05-24 12:00:00 23.7 2 Norte 8 Norte 0 -- -- 43
2019-05-24 11:00:00 21.5 6 Norte 14 Este 0 -- -- 50
2019-05-24 10:00:00 21.8 8 Este 17 Nordeste 0 -- -- 49
2019-05-24 09:00:00 18.8 6 Nordeste 12 Nordeste 0 -- -- 61
2019-05-24 08:00:00 17.1 8 Nordeste 12 Nordeste 0 -- -- 69
2019-05-24 07:00:00 14.6 4 Norte 8 Norte 0 -- -- 74
2019-05-24 06:00:00 14.5 2 Sudeste 5 Sudeste 0 -- -- 80
2019-05-24 05:00:00 14.4 4 Noroeste 6 Noroeste 0 -- -- 82
2019-05-24 04:00:00 13.5 0 Calma 6 Noroeste 0 -- -- 81
2019-05-24 03:00:00 12.7 3 Sudeste 4 Sudeste 0 -- -- 83
2019-05-24 02:00:00 14.7 0 Calma 5 Norte 0 -- -- 78
2019-05-24 01:00:00 15.7 3 Este 5 Nordeste 0 -- -- 79
2019-05-24 00:00:00 15.7 2 Sudeste 6 Nordeste 0 -- -- 77
2019-05-23 23:00:00 16.9 0 Calma 3 Noroeste 0 -- -- 75
2019-05-23 22:00:00 17.5 2 Este 5 Este 0 -- -- 73
2019-05-23 21:00:00 19.5 5 Sudeste 15 Sur 0 -- -- 67
2019-05-23 20:00:00 21.5 10 Sur 22 Sur 0 -- -- 56
2019-05-23 19:00:00 21.8 14 Sur 25 Sur 0 -- -- 55
2019-05-23 18:00:00 23 18 Sur 26 Sur 0 -- -- 44
2019-05-23 17:00:00 24.2 16 Sudoeste 23 Sur 0 -- -- 38
2019-05-23 16:00:00 24.2 14 Sur -- -- -- -- -- 46
2019-05-23 15:00:00 -- -- -- -- -- -- -- -- --
2019-05-23 14:00:00 -- -- -- -- -- -- -- -- --
2019-05-23 13:00:00 -- -- -- -- -- -- -- -- --
2019-05-23 12:00:00 23.1 16 Oeste 22 Sudoeste 0 -- -- 45
2019-05-23 11:00:00 22.5 12 Sudoeste 20 Sudoeste 0 -- -- 52
2019-05-23 10:00:00 21.7 7 Sudoeste 13 Sudoeste 0 -- -- 49
2019-05-23 09:00:00 17.2 2 Noroeste 4 Sudoeste 0 -- -- 81
2019-05-23 08:00:00 12.9 0 Calma 3 Norte 0 -- -- 90
2019-05-23 07:00:00 9.2 0 Calma 3 Sudeste 0 -- -- 93
2019-05-23 06:00:00 8.9 0 Calma 3 Este 0 -- -- 91
2019-05-23 05:00:00 9.5 0 Calma 4 Norte 0 -- -- 91
2019-05-23 04:00:00 9.9 0 Calma 4 Sudeste 0 -- -- 90
2019-05-23 03:00:00 10.4 0 Calma 5 Norte 0 -- -- 89
2019-05-23 02:00:00 11.7 0 Calma 4 Sur 0 -- -- 89
2019-05-23 01:00:00 12.8 2 Sudeste 5 Sudeste 0 -- -- 87
2019-05-23 00:00:00 14.1 6 Sudeste 8 Sudeste 0 -- -- 88
2019-05-22 23:00:00 15 4 Sudeste 5 Sudeste 0 -- -- 82
2019-05-22 22:00:00 17.8 2 Sur 9 Sudeste 0 -- -- 79
2019-05-22 21:00:00 19.9 6 Sur 14 Sur 0 -- -- 72
2019-05-22 20:00:00 21.8 8 Sudoeste 15 Sur 0 -- -- 61
2019-05-22 19:00:00 22.8 10 Sudoeste 19 Sudoeste 0 -- -- 52
2019-05-22 18:00:00 23.1 14 Sudoeste 21 Sudoeste 0 -- -- 49
2019-05-22 17:00:00 23.8 14 Sudoeste 23 Sur 0 -- -- 35
2019-05-22 16:00:00 24 15 Sudoeste 28 Sudoeste 0 -- -- 33
2019-05-22 15:00:00 24.9 14 Sur 24 Sudeste 0 -- -- 37
2019-05-22 14:00:00 24.4 15 Sudeste 25 Sudeste 0 -- -- 39
2019-05-22 13:00:00 22.8 13 Sur 21 Sur 0 -- -- 43
2019-05-22 12:00:00 22.8 10 Sudoeste 18 Oeste 0 -- -- 50
2019-05-22 11:00:00 21.7 5 Oeste 7 Noroeste 0 -- -- 45
2019-05-22 10:00:00 18.7 4 Noroeste 6 Noroeste 0 -- -- 67
2019-05-22 09:00:00 15.6 4 Noroeste 7 Norte 0 -- -- 88
2019-05-22 08:00:00 12 2 Norte 6 Norte 0 -- -- 91
2019-05-22 07:00:00 9.2 0 Calma 2 Sudeste 0 -- -- 93
2019-05-22 06:00:00 9 0 Calma 2 Sudeste 0 -- -- 92
2019-05-22 05:00:00 9.4 0 Calma 3 Norte 0 -- -- 90
2019-05-22 04:00:00 9.7 0 Calma 3 Noroeste 0 -- -- 90
2019-05-22 03:00:00 10.5 2 Sudeste 5 Sudeste 0 -- -- 90
2019-05-22 02:00:00 11 0 Calma 8 Norte 0 -- -- 89
2019-05-22 01:00:00 12.3 3 Este 9 Norte 0 -- -- 89
2019-05-22 00:00:00 13.3 0 Calma 6 Sudeste 0 -- -- 85
2019-05-21 23:00:00 14.7 3 Sudeste 5 Sur 0 -- -- 82
2019-05-21 22:00:00 18.1 0 Calma 12 Sudeste 0 -- -- 79
2019-05-21 21:00:00 18.6 8 Sudeste 15 Sudeste 0 -- -- 76
2019-05-21 20:00:00 19.5 8 Sudeste 24 Sudeste 0 -- -- 69
2019-05-21 19:00:00 21.7 16 Sudeste 23 Sudeste 0 -- -- 55
2019-05-21 18:00:00 22.3 14 Sudeste 22 Sudeste 0 -- -- 48
2019-05-21 17:00:00 22.2 9 Sudoeste 21 Sudoeste 0 -- -- 46
2019-05-21 16:00:00 22.2 12 Sur 25 Sur 0 -- -- 39
2019-05-21 15:00:00 21.3 18 Sur 26 Sudoeste 0 -- -- 50
2019-05-21 14:00:00 22.5 14 Sur 21 Sur 0 -- -- 44
2019-05-21 13:00:00 23 12 Sudeste 30 Sudeste 0 -- -- 40
2019-05-21 12:00:00 22.4 22 Sudeste 29 Sudeste 0 -- -- 40
2019-05-21 11:00:00 22.9 16 Sudeste 25 Sudeste 0 -- -- 37
2019-05-21 10:00:00 22.3 6 Este 15 Este 0 -- -- 38
2019-05-21 09:00:00 18.2 4 Norte 8 Nordeste 0 -- -- 61
2019-05-21 08:00:00 14.1 5 Norte 8 Norte 0 -- -- 80
2019-05-21 07:00:00 9.9 0 Calma 4 Norte 0 -- -- 87
2019-05-21 06:00:00 9.2 0 Calma 3 Sudeste 0 -- -- 85
2019-05-21 05:00:00 11.3 0 Calma 5 Norte 0 -- -- 83
2019-05-21 04:00:00 11.8 3 Norte 7 Nordeste 0 -- -- 83
2019-05-21 03:00:00 11.7 4 Nordeste 7 Norte 0 -- -- 86
2019-05-21 02:00:00 11.3 0 Calma 6 Norte 0 -- -- 84
2019-05-21 01:00:00 12.9 0 Calma 9 Norte 0 -- -- 81
2019-05-21 00:00:00 14.2 0 Calma 13 Este 0 -- -- 78
2019-05-20 23:00:00 14.3 4 Este 9 Sudeste 0 -- -- 80
2019-05-20 22:00:00 14.8 5 Sudeste 9 Sudeste 0 -- -- 76
2019-05-20 21:00:00 17.9 3 Sudeste 14 Sudoeste 0 -- -- 72
2019-05-20 20:00:00 19.5 6 Sudoeste 22 Sudoeste 0 -- -- 67
2019-05-20 19:00:00 20 17 Oeste 27 Sudoeste 0 -- -- 66
2019-05-20 18:00:00 20.3 18 Oeste 33 Oeste 0 -- -- 64
2019-05-20 17:00:00 20.1 23 Oeste 37 Sudoeste 0 -- -- 66
2019-05-20 16:00:00 20.4 24 Oeste 50 Oeste 0 -- -- 61
2019-05-20 15:00:00 19.8 32 Oeste 43 Oeste 0 -- -- 64
2019-05-20 14:00:00 20 29 Oeste 40 Oeste 0 -- -- 64
2019-05-20 13:00:00 20.3 22 Oeste 34 Oeste 0 -- -- 60
2019-05-20 12:00:00 19.8 23 Oeste 35 Sudoeste 0 -- -- 57
2019-05-20 11:00:00 19.9 14 Sudoeste 29 Sudoeste 0 -- -- 56
2019-05-20 10:00:00 19.7 14 Noroeste 22 Noroeste 0 -- -- 48
2019-05-20 09:00:00 17.3 4 Noroeste 13 Noroeste 0 -- -- 64
2019-05-20 08:00:00 13.4 0 Calma 8 Noroeste 0 -- -- 80
2019-05-20 07:00:00 8.8 0 Calma 4 Norte 0 -- -- 91
2019-05-20 06:00:00 8.7 0 Calma 2 Nordeste 0 -- -- 87
2019-05-20 05:00:00 9.7 0 Calma 5 Sudeste 0 -- -- 87
2019-05-20 04:00:00 9.1 4 Sudeste 5 Sudeste 0 -- -- 85
2019-05-20 03:00:00 10.6 0 Calma 6 Sur 0 -- -- 83
2019-05-20 02:00:00 12.6 0 Calma 6 Norte 0 -- -- 82
2019-05-20 01:00:00 12.6 0 Calma 3 Sudeste 0 -- -- 82
2019-05-20 00:00:00 12.2 0 Calma 4 Sudeste 0 -- -- 79
2019-05-19 23:00:00 14 0 Calma 7 Oeste 0 -- -- 74
2019-05-19 22:00:00 17 5 Oeste 18 Oeste 0 -- -- 69
2019-05-19 21:00:00 17.7 13 Oeste 32 Oeste 0 -- -- 66
2019-05-19 20:00:00 19 23 Oeste 33 Oeste 0 -- -- 62
2019-05-19 19:00:00 19.4 24 Oeste 43 Oeste 0 -- -- 56
2019-05-19 18:00:00 19.6 32 Oeste 45 Oeste 0 -- -- 55
2019-05-19 17:00:00 19.7 34 Oeste 43 Oeste 0 -- -- 55
2019-05-19 16:00:00 19.7 31 Oeste 42 Oeste 0 -- -- 53
2019-05-19 15:00:00 19.9 26 Oeste 40 Sudoeste 0 -- -- 53
2019-05-19 14:00:00 19.1 27 Oeste 39 Oeste 0 -- -- 60
2019-05-19 13:00:00 19.2 26 Oeste 37 Oeste 0 -- -- 55
2019-05-19 12:00:00 19.3 28 Oeste 39 Oeste 0 -- -- 55
2019-05-19 11:00:00 19 20 Noroeste 31 Noroeste 0 -- -- 51
2019-05-19 10:00:00 18.1 20 Noroeste 37 Noroeste 0 -- -- 53
2019-05-19 09:00:00 16.7 25 Noroeste 33 Noroeste 0 -- -- 62
2019-05-19 08:00:00 14.5 3 Noroeste 6 Oeste 0 -- -- 77
2019-05-19 07:00:00 9 4 Sudoeste 6 Sudoeste 0 -- -- 94
2019-05-19 06:00:00 9.1 0 Calma 4 Sudeste 0 -- -- 91
2019-05-19 05:00:00 9.3 2 Sudeste 4 Sudeste 0 -- -- 91
2019-05-19 04:00:00 9.8 0 Calma 3 Sudeste 0 -- -- 89
2019-05-19 03:00:00 10.2 2 Sudeste 4 Sudeste 0 -- -- 87
2019-05-19 02:00:00 11.9 0 Calma 4 Norte 0 -- -- 82
2019-05-19 01:00:00 15.3 4 Norte 14 Oeste 0 -- -- 77
2019-05-19 00:00:00 16.3 5 Oeste 10 Oeste 0 -- -- 76
2019-05-18 23:00:00 16.9 8 Oeste 13 Oeste 0 -- -- 74
2019-05-18 22:00:00 17.1 12 Oeste 20 Oeste 0 -- -- 73
2019-05-18 21:00:00 17.3 14 Oeste 23 Oeste 0 -- -- 71
2019-05-18 20:00:00 17.6 17 Oeste 24 Oeste 0 -- -- 69
2019-05-18 19:00:00 18.1 17 Oeste 30 Sudoeste 0 -- -- 67
2019-05-18 18:00:00 18.1 18 Sudoeste 29 Oeste 0 -- -- 66
2019-05-18 17:00:00 19 21 Oeste 32 Oeste 0 -- -- 63
2019-05-18 16:00:00 19.8 23 Oeste 33 Sudoeste 0 -- -- 60
2019-05-18 15:00:00 19.6 17 Sudoeste 33 Sudoeste 0 -- -- 58
2019-05-18 14:00:00 19.1 18 Oeste 30 Oeste 0 -- -- 57
2019-05-18 13:00:00 19.2 18 Sudoeste 35 Oeste 0 -- -- 55
2019-05-18 12:00:00 19.5 21 Oeste 31 Oeste 0 -- -- 54
2019-05-18 11:00:00 18.9 10 Sudoeste 18 Oeste 0 -- -- 54
2019-05-18 10:00:00 18.1 2 Oeste 4 Oeste 0 -- -- 61
2019-05-18 09:00:00 16.5 0 Calma 4 Oeste 0 -- -- 73
2019-05-18 08:00:00 13 0 Calma 8 Oeste 0 -- -- 83
2019-05-18 07:00:00 11.7 5 Oeste 13 Nordeste 0 -- -- 86
2019-05-18 06:00:00 11.2 4 Norte 6 Norte 0 -- -- 87
2019-05-18 05:00:00 11.5 2 Sur 3 Sur 0 -- -- 85
2019-05-18 04:00:00 12.9 0 Calma 6 Sur 0 -- -- 82
2019-05-18 03:00:00 12.7 6 Sudeste 8 Sudeste 0 -- -- 82
2019-05-18 02:00:00 14.3 0 Calma 6 Sur 0 -- -- 77
2019-05-18 01:00:00 14.7 5 Nordeste 10 Nordeste 0 -- -- 75
2019-05-18 00:00:00 14.6 6 Nordeste 13 Oeste 0 -- -- 75
2019-05-17 23:00:00 15.4 9 Oeste 15 Noroeste 0 -- -- 72
2019-05-17 22:00:00 16.1 14 Noroeste 26 Oeste 0 -- -- 69
2019-05-17 21:00:00 17.1 21 Oeste 37 Noroeste 0 -- -- 66
2019-05-17 20:00:00 18.4 29 Noroeste 46 Noroeste 0 -- -- 60
2019-05-17 19:00:00 19 34 Noroeste 53 Noroeste 0 -- -- 58
2019-05-17 18:00:00 19.3 34 Noroeste 66 Oeste 0 -- -- 59
2019-05-17 17:00:00 19.4 50 Noroeste 71 Oeste 0 -- -- 58
2019-05-17 16:00:00 19.6 50 Noroeste 69 Oeste 0 -- -- 55
2019-05-17 15:00:00 19.6 42 Oeste 64 Oeste 0 -- -- 54
2019-05-17 14:00:00 19.6 44 Noroeste 65 Oeste 0 -- -- 53
2019-05-17 13:00:00 19.6 43 Noroeste 59 Oeste 0 -- -- 62
2019-05-17 12:00:00 20.9 41 Oeste 55 Oeste 0 -- -- 59
2019-05-17 11:00:00 20.4 23 Oeste 34 Sudoeste 0 -- -- 77
2019-05-17 10:00:00 19.4 15 Sudoeste 22 Sudoeste 0 -- -- 80
2019-05-17 09:00:00 18.3 12 Sur 19 Sur 0 -- -- 84
2019-05-17 08:00:00 16.7 7 Sur 14 Sudeste 0 -- -- 87
2019-05-17 07:00:00 13.6 0 Calma 4 Norte 0 -- -- 89
2019-05-17 06:00:00 12.8 3 Este 11 Noroeste 0 -- -- 90
2019-05-17 05:00:00 12.1 4 Este 9 Norte 0 -- -- 88
2019-05-17 04:00:00 13.1 2 Norte 12 Este 0 -- -- 85
2019-05-17 03:00:00 15.2 6 Este 19 Sudeste 0 -- -- 81
2019-05-17 02:00:00 15.5 10 Sudeste 22 Sudeste 0 -- -- 81
2019-05-17 01:00:00 15.9 15 Sudeste 30 Sudeste 0 -- -- 80
2019-05-17 00:00:00 15.9 12 Sudeste 27 Sudeste 0 -- -- 81
2019-05-16 23:00:00 16 13 Sudeste 22 Sudeste 0 -- -- 78
2019-05-16 22:00:00 16.1 12 Sudeste 22 Sudeste 0 -- -- 75
2019-05-16 21:00:00 16.7 15 Sudeste 29 Sudeste 0 -- -- 73
2019-05-16 20:00:00 18.1 19 Sudeste 30 Sudeste 0 -- -- 65
2019-05-16 19:00:00 18.9 21 Sudeste 29 Sudeste 0 -- -- 62
2019-05-16 18:00:00 19.6 20 Sudeste 31 Sudeste 0 -- -- 57
2019-05-16 17:00:00 20 17 Sudeste 33 Sudeste 0 -- -- 53
2019-05-16 16:00:00 20.3 18 Sudeste 31 Sudeste 0 -- -- 54
2019-05-16 15:00:00 20.8 18 Sudeste 30 Sudeste 0 -- -- 54
2019-05-16 14:00:00 20.5 17 Sudeste 33 Sudeste 0 -- -- 49
2019-05-16 13:00:00 20.2 18 Sur 29 Sur 0 -- -- 50
2019-05-16 12:00:00 19.7 18 Sudoeste 25 Sudoeste 0 -- -- 54
2019-05-16 11:00:00 19.3 13 Sur 23 Sur 0 -- -- 57
2019-05-16 10:00:00 18.5 12 Sudeste 21 Sudeste 0 -- -- 60
2019-05-16 09:00:00 15.3 3 Noroeste 4 Noroeste 0 -- -- 81
2019-05-16 08:00:00 11.6 0 Calma 3 Noroeste 0 -- -- 89
2019-05-16 07:00:00 7.8 0 Calma 3 Sudeste 0 -- -- 90
2019-05-16 06:00:00 9.4 2 Norte 5 Noroeste 0 -- -- 91
2019-05-16 05:00:00 10.6 4 Norte 7 Nordeste 0 -- -- 91
2019-05-16 04:00:00 8.8 0 Calma 4 Nordeste 0 -- -- 87
2019-05-16 03:00:00 11 3 Norte 6 Nordeste 0 -- -- 88
2019-05-16 02:00:00 11.6 2 Nordeste 9 Nordeste 0 -- -- 84
2019-05-16 01:00:00 12.5 5 Norte 6 Norte 0 -- -- 86
2019-05-16 00:00:00 14.1 4 Nordeste 11 Este 0 -- -- 80
2019-05-15 23:00:00 15.3 7 Nordeste 17 Este 0 -- -- 77
2019-05-15 22:00:00 16.2 9 Este 17 Este 0 -- -- 75
2019-05-15 21:00:00 17.3 12 Este 27 Este 0 -- -- 68
2019-05-15 20:00:00 19.1 20 Este 35 Este 0 -- -- 59
2019-05-15 19:00:00 19.8 19 Este 37 Este 0 -- -- 58
2019-05-15 18:00:00 21.4 24 Este 37 Este 0 -- -- 47
2019-05-15 17:00:00 22.7 22 Este 34 Este 0 -- -- 40
2019-05-15 16:00:00 23.2 21 Sudeste 38 Sudeste 0 -- -- 42
2019-05-15 15:00:00 22.6 15 Este 31 Sudeste 0 -- -- 50
2019-05-15 14:00:00 22.3 23 Sudeste 33 Sudeste 0 -- -- 60
2019-05-15 13:00:00 21.2 15 Oeste 28 Sudoeste 0 -- -- 66
2019-05-15 12:00:00 20.6 16 Sudoeste 25 Sudoeste 0 -- -- 68
2019-05-15 11:00:00 20.4 10 Sudoeste 17 Sudoeste 0 -- -- 66
2019-05-15 10:00:00 19.4 8 Oeste 15 Oeste 0 -- -- 71
2019-05-15 09:00:00 15.9 0 Calma -- -- 0 -- -- 81
2019-05-15 08:00:00 11.2 0 Calma -- -- 0 -- -- 85
2019-05-15 07:00:00 7.9 0 Calma 3 Sudeste 0 -- -- 92
2019-05-15 06:00:00 6.9 2 Sur 3 Sudeste 0 -- -- 90
2019-05-15 05:00:00 7.4 2 Sudeste 3 Sudeste 0 -- -- 88
2019-05-15 04:00:00 7.9 2 Sudeste 2 Sudeste 0 -- -- 88
2019-05-15 03:00:00 8.9 0 Calma 4 Norte 0 -- -- 87
2019-05-15 02:00:00 9.3 0 Calma 3 Sudeste 0 -- -- 86
2019-05-15 01:00:00 10.5 0 Calma 4 Sur 0 -- -- 82
2019-05-15 00:00:00 11.6 0 Calma 5 Sudeste 0 -- -- 79
2019-05-14 23:00:00 12.9 5 Sudeste 6 Sudeste 0 -- -- 76
2019-05-14 22:00:00 14.4 4 Sur 5 Sudeste 0 -- -- 71
2019-05-14 21:00:00 18.4 5 Sudoeste 12 Oeste 0 -- -- 59
2019-05-14 20:00:00 21 6 Sudoeste 15 Sudoeste 0 -- -- 46
2019-05-14 19:00:00 21.1 12 Oeste 22 Sur 0 -- -- 52
2019-05-14 18:00:00 21.6 14 Sur 26 Sur 0 -- -- 41
2019-05-14 17:00:00 22.1 13 Sudoeste 31 Oeste 0 -- -- 43
2019-05-14 16:00:00 22.1 21 Sudoeste 33 Sudoeste 0 -- -- 46
2019-05-14 15:00:00 22.4 17 Sudoeste 29 Oeste 0 -- -- 49
2019-05-14 14:00:00 23.5 11 Nordeste 37 Noroeste 0 -- -- 34
2019-05-14 13:00:00 22.8 19 Nordeste 36 Norte 0 -- -- 35
2019-05-14 12:00:00 22.2 18 Nordeste 39 Norte 0 -- -- 37
2019-05-14 11:00:00 21.3 18 Nordeste 35 Norte 0 -- -- 43
2019-05-14 10:00:00 19.9 19 Norte 32 Norte 0 -- -- 48
2019-05-14 09:00:00 15.2 0 Calma 5 Noroeste 0 -- -- 68
2019-05-14 08:00:00 10.7 0 Calma 6 Norte 0 -- -- 80
2019-05-14 07:00:00 7.2 2 Sudeste 7 Sur 0 -- -- 87
2019-05-14 06:00:00 7.5 3 Norte 4 Norte 0 -- -- 88
2019-05-14 05:00:00 7.4 0 Calma 5 Norte 0 -- -- 84
2019-05-14 04:00:00 8.4 2 Norte 3 Norte 0 -- -- 84
2019-05-14 03:00:00 8.9 0 Calma 8 Norte 0 -- -- 79
2019-05-14 02:00:00 8.9 2 Nordeste 4 Norte 0 -- -- 78
2019-05-14 01:00:00 9.9 4 Nordeste 5 Norte 0 -- -- 76
2019-05-14 00:00:00 10.4 0 Calma 6 Noroeste 0 -- -- 73
2019-05-13 23:00:00 13.1 2 Nordeste 5 Nordeste 0 -- -- 67
2019-05-13 22:00:00 15.6 4 Nordeste 15 Nordeste 0 -- -- 61
2019-05-13 21:00:00 16.9 14 Nordeste 22 Norte 0 -- -- 55
2019-05-13 20:00:00 18.6 15 Nordeste 27 Nordeste 0 -- -- 48
2019-05-13 19:00:00 19.4 18 Nordeste 35 Norte 0 -- -- 44
2019-05-13 18:00:00 20 20 Nordeste 39 Norte 0 -- -- 43
2019-05-13 17:00:00 20.7 23 Norte 42 Norte 0 -- -- 37
2019-05-13 16:00:00 20.8 24 Norte 39 Nordeste 0 -- -- 38
2019-05-13 15:00:00 19.9 26 Nordeste 41 Norte 0 -- -- 42
2019-05-13 14:00:00 19 26 Nordeste 39 Nordeste 0 -- -- 46
2019-05-13 13:00:00 19.2 18 Nordeste 48 Oeste 0 -- -- 50
2019-05-13 12:00:00 19.6 32 Oeste 48 Oeste 0 -- -- 61
2019-05-13 11:00:00 19.4 32 Oeste 44 Oeste 0 -- -- 63
2019-05-13 10:00:00 18.8 31 Oeste 43 Oeste 0 -- -- 69
2019-05-13 09:00:00 17.3 14 Noroeste 23 Noroeste 0 -- -- 69
2019-05-13 08:00:00 11.8 0 Calma 4 Norte 0 -- -- 81
2019-05-13 07:00:00 8.1 3 Sudeste 4 Sudeste 0 -- -- 86
2019-05-13 06:00:00 9.6 0 Calma 9 Norte 0 -- -- 83
2019-05-13 05:00:00 10.2 4 Norte 11 Norte 0 -- -- 84
2019-05-13 04:00:00 10 2 Sudeste 8 Oeste 0 -- -- 78
2019-05-13 03:00:00 10.6 3 Este 10 Sudeste 0 -- -- 84
2019-05-13 02:00:00 10.3 2 Sudeste 6 Norte 0 -- -- 82
2019-05-13 01:00:00 12.3 4 Norte 11 Nordeste 0 -- -- 80
2019-05-13 00:00:00 12.5 0 Calma 5 Norte 0 -- -- 75
2019-05-12 23:00:00 13 4 Sudeste 6 Este 0 -- -- 74
2019-05-12 22:00:00 15.9 6 Este 21 Este 0 -- -- 67
2019-05-12 21:00:00 17 15 Este 28 Este 0 -- -- 67
2019-05-12 20:00:00 18.7 17 Este 27 Este 0 -- -- 65
2019-05-12 19:00:00 19.8 10 Sudoeste 39 Oeste 0 -- -- 62
2019-05-12 18:00:00 19.6 28 Oeste 46 Oeste 0 -- -- 66
2019-05-12 17:00:00 21 31 Oeste 47 Oeste 0 -- -- 63
2019-05-12 16:00:00 20.3 31 Oeste 46 Oeste 0 -- -- 65
2019-05-12 15:00:00 20.3 28 Oeste 44 Oeste 0 -- -- 66
2019-05-12 14:00:00 20.6 34 Oeste 48 Oeste 0 -- -- 63
2019-05-12 13:00:00 20.6 34 Oeste 48 Oeste 0 -- -- 59
2019-05-12 12:00:00 20.4 14 Oeste 28 Oeste 0 -- -- 55
2019-05-12 11:00:00 20.1 14 Oeste 25 Oeste 0 -- -- 53
2019-05-12 10:00:00 19.6 6 Norte 21 Norte 0 -- -- 55
2019-05-12 09:00:00 17.2 5 Norte 9 Noroeste 0 -- -- 72
2019-05-12 08:00:00 13.3 4 Norte 6 Norte 0 -- -- 87
2019-05-12 07:00:00 10.8 0 Calma 3 Norte 0 -- -- 87
2019-05-12 06:00:00 12.2 0 Calma 4 Noroeste 0 -- -- 88
2019-05-12 05:00:00 11.3 0 Calma 5 Noroeste 0 -- -- 88
2019-05-12 04:00:00 12 0 Calma 9 Noroeste 0 -- -- 85
2019-05-12 03:00:00 10.9 0 Calma 5 Noroeste 0 -- -- 85
2019-05-12 02:00:00 11.6 0 Calma 2 Sudeste 0 -- -- 81
2019-05-12 01:00:00 13.7 0 Calma 6 Nordeste 0 -- -- 76
2019-05-12 00:00:00 15.6 5 Norte 11 Nordeste 0 -- -- 73
2019-05-11 23:00:00 17 5 Nordeste 20 Nordeste 0 -- -- 68
2019-05-11 22:00:00 18 9 Nordeste 27 Este 0 -- -- 64
2019-05-11 21:00:00 19.5 12 Nordeste 33 Este 0 -- -- 65
2019-05-11 20:00:00 21.3 20 Este 34 Este 0 -- -- 62
2019-05-11 19:00:00 22.5 25 Este 36 Este 0 -- -- 58
2019-05-11 18:00:00 23.7 19 Nordeste 37 Norte 0 -- -- 57
2019-05-11 17:00:00 24 29 Norte 41 Norte 0 -- -- 58
2019-05-11 16:00:00 25.3 26 Norte 35 Nordeste 0 -- -- 55
2019-05-11 15:00:00 25.5 13 Norte 23 Este 0 -- -- 61
2019-05-11 14:00:00 26.7 19 Sudeste 27 Este 0 -- -- 53
2019-05-11 13:00:00 26.4 12 Sudeste 27 Sudeste 0 -- -- 54
2019-05-11 12:00:00 25.3 13 Sudoeste 20 Sudoeste 0 -- -- 59
2019-05-11 11:00:00 24 13 Oeste 17 Sudoeste 0 -- -- 67
2019-05-11 10:00:00 24.2 5 Sudoeste 12 Este 0 -- -- 64
2019-05-11 09:00:00 20.8 3 Norte 8 Este 0 -- -- 77
2019-05-11 08:00:00 16.7 0 Calma 6 Norte 0 -- -- 91
2019-05-11 07:00:00 13.4 0 Calma 5 Sur 0 -- -- 94
2019-05-11 06:00:00 13.6 0 Calma 4 Norte 0 -- -- 93
2019-05-11 05:00:00 14.7 0 Calma 9 Sudeste 0 -- -- 95
2019-05-11 04:00:00 14.6 4 Sudeste -- -- 0 -- -- 94
2019-05-11 03:00:00 14.3 0 Calma 2 Sudeste 0 -- -- 92
2019-05-11 02:00:00 15.8 4 Norte 8 Norte 0 -- -- 93
2019-05-11 01:00:00 15.7 0 Calma 5 Sudeste 0 -- -- 90
2019-05-11 00:00:00 16.7 4 Sudeste 5 Sudeste 0 -- -- 90
2019-05-10 23:00:00 17.4 0 Calma 6 Sudeste 0 -- -- 88
2019-05-10 22:00:00 18.8 5 Sur 11 Sudoeste 0 -- -- 87
2019-05-10 21:00:00 20.2 5 Sudeste 9 Sur 0 -- -- 81
2019-05-10 20:00:00 22.4 7 Sudoeste 21 Sudoeste 0 -- -- 72
2019-05-10 19:00:00 22.7 14 Sudoeste 25 Sudoeste 0 -- -- 70
2019-05-10 18:00:00 22.4 19 Sudoeste 33 Sudoeste 0 -- -- 71
2019-05-10 17:00:00 22.7 16 Sudoeste 34 Oeste 0 -- -- 72
2019-05-10 16:00:00 22.8 16 Sudoeste 32 Sudoeste 0 -- -- 72
2019-05-10 15:00:00 22.4 18 Sudoeste 34 Sudoeste 0 -- -- 73
2019-05-10 14:00:00 22.4 17 Sudoeste 29 Sudoeste 0 -- -- 75
2019-05-10 13:00:00 22 17 Sudoeste 30 Sudoeste 0 -- -- 77
2019-05-10 12:00:00 21.5 20 Sudoeste 30 Sudoeste 0 -- -- 80
2019-05-10 11:00:00 20.6 16 Sudoeste 28 Sudoeste 0 -- -- 85
2019-05-10 10:00:00 19.9 15 Sudoeste 27 Oeste 0 -- -- 88
2019-05-10 09:00:00 18.9 14 Oeste 22 Oeste 0 -- -- 93
2019-05-10 08:00:00 18.1 9 Sudoeste 17 Oeste 0 -- -- 96
2019-05-10 07:00:00 17.7 7 Sudoeste 12 Sudoeste 0 -- -- 96
2019-05-10 06:00:00 17.6 8 Sudoeste 17 Oeste 0 -- -- 95
2019-05-10 05:00:00 17.8 9 Sudoeste 20 Sudoeste 0 -- -- 95
2019-05-10 04:00:00 17.7 10 Sudoeste 22 Sur 0 -- -- 94
2019-05-10 03:00:00 13.7 4 Sudeste 6 Sudeste 0 -- -- 89
2019-05-10 02:00:00 14.1 2 Norte 6 Sudeste 0 -- -- 84
2019-05-10 01:00:00 13.8 5 Sudeste 6 Sudeste 0 -- -- 87
2019-05-10 00:00:00 14.1 2 Sudeste 5 Sudeste 0 -- -- 84
2019-05-09 23:00:00 15.3 3 Sudeste 5 Este 0 -- -- 81
2019-05-09 22:00:00 17.1 3 Sudoeste 12 Sudoeste 0 -- -- 75
2019-05-09 21:00:00 18.1 9 Sudoeste 19 Sudoeste 0 -- -- 69
2019-05-09 20:00:00 20.4 12 Sudoeste 27 Oeste 0 -- -- 59
2019-05-09 19:00:00 21.9 14 Sudoeste 26 Oeste 0 -- -- 44
2019-05-09 18:00:00 22.8 15 Sudoeste 26 Oeste 0 -- -- 41
2019-05-09 17:00:00 22.2 23 Oeste 30 Oeste 0 -- -- 49
2019-05-09 16:00:00 21.6 21 Oeste 34 Oeste 0 -- -- 55
2019-05-09 15:00:00 22.1 24 Oeste 31 Sudoeste 0 -- -- 55
2019-05-09 14:00:00 22.7 24 Oeste 33 Sudoeste 0 -- -- 46
2019-05-09 13:00:00 22.9 20 Sudoeste 32 Oeste 0 -- -- 46
2019-05-09 12:00:00 23.2 18 Sudeste 38 Sudeste 0 -- -- 57
2019-05-09 11:00:00 23.4 9 Oeste 18 Sudoeste 0 -- -- 42
2019-05-09 10:00:00 22.7 6 Oeste 17 Oeste 0 -- -- 54
2019-05-09 09:00:00 20.8 11 Noroeste 18 Noroeste 0 -- -- 60
2019-05-09 08:00:00 19.2 13 Oeste 21 Oeste 0 -- -- 73
2019-05-09 07:00:00 19.2 15 Oeste 31 Noroeste 0 -- -- 71
2019-05-09 06:00:00 20 26 Noroeste 46 Oeste 0 -- -- 67
2019-05-09 05:00:00 20.1 21 Oeste 33 Oeste 0 -- -- 69
2019-05-09 04:00:00 19.1 17 Oeste 26 Oeste 0 -- -- 81
2019-05-09 03:00:00 19.2 18 Noroeste 27 Oeste 0 -- -- 83
2019-05-09 02:00:00 19.3 13 Oeste 36 Oeste 0 -- -- 83
2019-05-09 01:00:00 18.5 12 Oeste 22 Oeste 0 -- -- 90
2019-05-09 00:00:00 18.5 18 Oeste 25 Oeste 0 -- -- 90
2019-05-08 23:00:00 18.5 13 Oeste 22 Oeste 0 -- -- 92
2019-05-08 22:00:00 18.2 9 Oeste 27 Sudoeste 0 -- -- 93
2019-05-08 21:00:00 17.9 15 Sudoeste 26 Sudoeste 0 -- -- 93
2019-05-08 20:00:00 18.5 10 Sudoeste 26 Sudoeste 0 -- -- 91
2019-05-08 19:00:00 19.6 14 Sudoeste 28 Sudoeste 0 -- -- 85
2019-05-08 18:00:00 19.9 17 Sudoeste 31 Sudoeste 0 -- -- 83
2019-05-08 17:00:00 20.2 19 Sudoeste 33 Sudoeste 0 -- -- 83
2019-05-08 16:00:00 20.6 15 Sudoeste 30 Oeste 0 -- -- 81
2019-05-08 15:00:00 20.7 17 Sudoeste 34 Oeste 0 -- -- 78
2019-05-08 14:00:00 20.4 15 Sudoeste 31 Oeste 0 -- -- 79
2019-05-08 13:00:00 19.7 22 Oeste 31 Oeste 0 -- -- 79
2019-05-08 12:00:00 19.2 19 Oeste 30 Sudoeste 0 -- -- 80
2019-05-08 11:00:00 18.8 18 Oeste 27 Oeste 0 -- -- 82
2019-05-08 10:00:00 17.8 14 Sudoeste 26 Sur 0 -- -- 85
2019-05-08 09:00:00 17.4 9 Sudoeste 23 Oeste 0 -- -- 87
2019-05-08 08:00:00 17 10 Sudoeste 20 Sudoeste 0 -- -- 88
2019-05-08 07:00:00 16.8 9 Sudoeste 22 Sudoeste 0 -- -- 89
2019-05-08 06:00:00 16.7 13 Sudoeste 20 Sudoeste 0 -- -- 91
2019-05-08 05:00:00 16.4 8 Sur 14 Sudoeste 0 -- -- 93
2019-05-08 04:00:00 14.9 4 Sur 14 Sudoeste 0 -- -- 97
2019-05-08 03:00:00 13.8 0 Calma 7 Sudeste 0 -- -- 95
2019-05-08 02:00:00 12.7 5 Sudeste 6 Sudeste 0 -- -- 93
2019-05-08 01:00:00 12.6 3 Sudeste 4 Sudeste 0 -- -- 91
2019-05-08 00:00:00 13.5 0 Calma 6 Sudeste 0 -- -- 88
2019-05-07 23:00:00 14.6 6 Sudeste 9 Sudeste 0 -- -- 87
2019-05-07 22:00:00 15.8 5 Sudeste 14 Sudeste 0 -- -- 85
2019-05-07 21:00:00 16.7 9 Sudeste 23 Sudeste 0 -- -- 81
2019-05-07 20:00:00 18.1 17 Sudeste 27 Sudeste 0 -- -- 74
2019-05-07 19:00:00 18.9 19 Sudeste 30 Sur 0 -- -- 70
2019-05-07 18:00:00 19.5 21 Sudeste 34 Sur 0 -- -- 64
2019-05-07 17:00:00 20.2 19 Sudeste 30 Sudeste 0 -- -- 58
2019-05-07 16:00:00 21 22 Sudeste 34 Sudeste 0 -- -- 53
2019-05-07 15:00:00 21.3 21 Sudeste 32 Sudeste 0 -- -- 56
2019-05-07 14:00:00 21.4 20 Sudeste 32 Sudeste 0 -- -- 56
2019-05-07 13:00:00 21.4 16 Sudeste 29 Sudeste 0 -- -- 59
2019-05-07 12:00:00 20.4 18 Sur 32 Sur 0 -- -- 62
2019-05-07 11:00:00 20.2 18 Sur 33 Sur 0 -- -- 61
2019-05-07 10:00:00 18.6 17 Sur 23 Sur 0 -- -- 71
2019-05-07 09:00:00 14.8 3 Noroeste 5 Noroeste 0 -- -- 87
2019-05-07 08:00:00 11.2 0 Calma 3 Sudeste 0 -- -- 93
2019-05-07 07:00:00 7.6 0 Calma 3 Nordeste 0 -- -- 95
2019-05-07 06:00:00 7.7 0 Calma 2 Sudeste 0 -- -- 94
2019-05-07 05:00:00 7.8 0 Calma 2 Sudeste 0 -- -- 93
2019-05-07 04:00:00 8.2 0 Calma 2 Nordeste 0 -- -- 93
2019-05-07 03:00:00 8.9 0 Calma 3 Sudeste 0 -- -- 92
2019-05-07 02:00:00 9.8 0 Calma 5 Sudeste 0 -- -- 90
2019-05-07 01:00:00 10.9 0 Calma 5 Sudeste 0 -- -- 89
2019-05-07 00:00:00 11.8 3 Sudeste 6 Sudeste 0 -- -- 87
2019-05-06 23:00:00 12.7 4 Sudeste 10 Sur 0 -- -- 83
2019-05-06 22:00:00 14.1 5 Sur 12 Sur 0 -- -- 77
2019-05-06 21:00:00 15.8 8 Sur 18 Sudoeste 0 -- -- 73
2019-05-06 20:00:00 17.9 12 Sudoeste 19 Sudoeste 0 -- -- 66
2019-05-06 19:00:00 19.8 10 Sudoeste 25 Sudeste 0 -- -- 62
2019-05-06 18:00:00 19.2 13 Sur 27 Sur 0 -- -- 64
2019-05-06 17:00:00 18.9 18 Sur 30 Sur 0 -- -- 61
2019-05-06 16:00:00 19.8 17 Sur 30 Sur 0 -- -- 55
2019-05-06 15:00:00 20.5 15 Sur 26 Sur 0 -- -- 53
2019-05-06 14:00:00 19.5 17 Sudeste 33 Sudeste 0 -- -- 50
2019-05-06 13:00:00 19.6 14 Sudeste 26 Sudeste 0 -- -- 49
2019-05-06 12:00:00 20 12 Sudeste 31 Sudeste 0 -- -- 46
2019-05-06 11:00:00 19.3 13 Sudeste 28 Este 0 -- -- 47
2019-05-06 10:00:00 18.1 11 Sudeste 21 Sudeste 0 -- -- 49
2019-05-06 09:00:00 14.7 5 Norte 8 Norte 0 -- -- 69
2019-05-06 08:00:00 12.3 6 Nordeste 11 Nordeste 0 -- -- 81
2019-05-06 07:00:00 11.5 5 Nordeste 10 Nordeste 0 -- -- 85
2019-05-06 06:00:00 11.6 3 Este 10 Norte 0 -- -- 86
2019-05-06 05:00:00 12 3 Noroeste 17 Noroeste 0 -- -- 84
2019-05-06 04:00:00 9.9 3 Este 8 Nordeste 0 -- -- 91
2019-05-06 03:00:00 10 4 Norte 10 Norte 0 -- -- 89
2019-05-06 02:00:00 11.8 4 Sudeste 6 Norte 0 -- -- 85
2019-05-06 01:00:00 14.1 4 Sur 19 Sur 0 -- -- 76
2019-05-06 00:00:00 14.5 9 Sudoeste 17 Sudoeste 0 -- -- 74
2019-05-05 23:00:00 14.6 10 Sudoeste 21 Sudoeste 0 -- -- 71
2019-05-05 22:00:00 14.5 12 Sudoeste 21 Sudoeste 0 -- -- 66
2019-05-05 21:00:00 14.7 10 Sudoeste 21 Sudoeste 0 -- -- 64
2019-05-05 20:00:00 17.2 13 Sudoeste 28 Sudoeste 0 -- -- 54
2019-05-05 19:00:00 17.6 17 Sudoeste 31 Sudoeste 0 -- -- 52
2019-05-05 18:00:00 17.9 19 Sudoeste 32 Oeste 0 -- -- 52
2019-05-05 17:00:00 18.3 17 Sudoeste 32 Oeste 0 -- -- 50
2019-05-05 16:00:00 18.6 19 Sudoeste 33 Oeste 0 -- -- 50
2019-05-05 15:00:00 19.3 16 Oeste 27 Oeste 0 -- -- 42
2019-05-05 14:00:00 19.6 20 Sur 31 Sur 0 -- -- 43
2019-05-05 13:00:00 20.2 3 Oeste 28 Nordeste 0 -- -- 41
2019-05-05 12:00:00 17.2 19 Nordeste 35 Nordeste 0 -- -- 47
2019-05-05 11:00:00 16.8 17 Nordeste 41 Norte 0 -- -- 45
2019-05-05 10:00:00 15.3 26 Nordeste 41 Nordeste 0 -- -- 48
2019-05-05 09:00:00 14.4 21 Nordeste 35 Nordeste 0 -- -- 54
2019-05-05 08:00:00 13.3 8 Nordeste 20 Nordeste 0 -- -- 71
2019-05-05 07:00:00 12.4 11 Norte 20 Norte 0 -- -- 80
2019-05-05 06:00:00 13.2 7 Norte 25 Noroeste 0 -- -- 83
2019-05-05 05:00:00 15 12 Noroeste 27 Oeste 0 -- -- 88
2019-05-05 04:00:00 15.8 21 Oeste 48 Oeste 0 -- -- 86
2019-05-05 03:00:00 16 19 Oeste 35 Sudoeste 0 -- -- 82
2019-05-05 02:00:00 15.6 19 Oeste 33 Sudoeste 0 -- -- 79
2019-05-05 01:00:00 15.7 21 Oeste 33 Oeste 0 -- -- 76
2019-05-05 00:00:00 15.5 15 Sudoeste 30 Sudoeste 0 -- -- 77
2019-05-04 23:00:00 15.4 13 Sudoeste 26 Sudoeste 0 -- -- 76
2019-05-04 22:00:00 15.2 9 Sudoeste 21 Sudoeste 0 -- -- 73
2019-05-04 21:00:00 15.6 10 Oeste 23 Oeste 0 -- -- 72
2019-05-04 20:00:00 17.7 17 Oeste 31 Oeste 0 -- -- 64
2019-05-04 19:00:00 18.2 22 Oeste 39 Oeste 0 -- -- 65
2019-05-04 18:00:00 18 29 Oeste 40 Oeste 0 -- -- 67
2019-05-04 17:00:00 18.7 28 Oeste 39 Oeste 0 -- -- 63
2019-05-04 16:00:00 17.2 25 Oeste 36 Oeste 0 -- -- 64
2019-05-04 15:00:00 18.5 25 Oeste 36 Oeste 0 -- -- 65
2019-05-04 14:00:00 20.4 16 Oeste 26 Oeste 0 -- -- 54
2019-05-04 13:00:00 19.2 6 Noroeste 20 Norte 0 -- -- 60
2019-05-04 12:00:00 18.4 9 Norte 23 Norte 0 -- -- 54
2019-05-04 11:00:00 18 12 Norte 25 Noroeste 0 -- -- 56
2019-05-04 10:00:00 16.3 12 Norte 20 Norte 0 -- -- 70
2019-05-04 09:00:00 14.1 6 Noroeste 10 Norte 0 -- -- 89
2019-05-04 08:00:00 12.4 6 Norte 9 Noroeste 0 -- -- 96
2019-05-04 07:00:00 11.7 3 Noroeste 7 Norte 0 -- -- 98
2019-05-04 06:00:00 12.3 5 Norte 6 Noroeste 0 -- -- 97
2019-05-04 05:00:00 12.4 4 Norte 6 Norte 0.6 -- -- 97
2019-05-04 04:00:00 12.4 5 Norte 18 Oeste 0.2 -- -- 96
2019-05-04 03:00:00 12.4 8 Noroeste 14 Noroeste 0 -- -- 97
2019-05-04 02:00:00 12.8 4 Norte 10 Norte 0 -- -- 97
2019-05-04 01:00:00 13.4 7 Norte 10 Norte 0 -- -- 96
2019-05-04 00:00:00 13.5 4 Nordeste 17 Norte 0 -- -- 96
2019-05-03 23:00:00 13.9 6 Noroeste 10 Norte 0.8 -- -- 96
2019-05-03 22:00:00 13.6 10 Noroeste 15 Norte 0.8 -- -- 96
2019-05-03 21:00:00 13.9 8 Norte 13 Nordeste 4.4 -- -- 96
2019-05-03 20:00:00 14.2 5 Norte 13 Norte 6 -- -- 94
2019-05-03 19:00:00 15.8 9 Norte 15 Sudeste 1.4 -- -- 87
2019-05-03 18:00:00 17.6 11 Sudeste 28 Sudeste 0 -- -- 72
2019-05-03 17:00:00 19.6 18 Sudeste 35 Sudeste 0 -- -- 57
2019-05-03 16:00:00 21.1 19 Sudeste 46 Sudeste 0 -- -- 52
2019-05-03 15:00:00 21 15 Este 29 Sudeste 0 -- -- 54
2019-05-03 14:00:00 20.9 16 Sudeste 33 Este 0 -- -- 56
2019-05-03 13:00:00 20.2 20 Este 34 Sudeste 0 -- -- 58
2019-05-03 12:00:00 20.2 20 Este 32 Este 0 -- -- 55
2019-05-03 11:00:00 18.6 16 Este 27 Nordeste 0 -- -- 67
2019-05-03 10:00:00 17.4 10 Este 22 Este 0 -- -- 70
2019-05-03 09:00:00 14 8 Nordeste 13 Nordeste 0 -- -- 90
2019-05-03 08:00:00 12.1 8 Nordeste 15 Nordeste 0 -- -- 93
2019-05-03 07:00:00 11.6 10 Nordeste 17 Nordeste 0 -- -- 95
2019-05-03 06:00:00 11.3 6 Norte 10 Nordeste 0 -- -- 93
2019-05-03 05:00:00 12.6 8 Nordeste 14 Norte 0 -- -- 93
2019-05-03 04:00:00 12.9 10 Nordeste 14 Nordeste 0 -- -- 92
2019-05-03 03:00:00 12.8 8 Nordeste 13 Nordeste 0 -- -- 92
2019-05-03 02:00:00 12.8 9 Nordeste 13 Nordeste 0 -- -- 90
2019-05-03 01:00:00 13 7 Nordeste 11 Nordeste 0 -- -- 90
2019-05-03 00:00:00 13.1 6 Norte 8 Norte 0 -- -- 87
2019-05-02 23:00:00 14.2 3 Nordeste 10 Nordeste 0 -- -- 83
2019-05-02 22:00:00 15.7 6 Nordeste 15 Este 0 -- -- 78
2019-05-02 21:00:00 16.6 4 Nordeste 20 Este 0 -- -- 75
2019-05-02 20:00:00 17.7 12 Este 25 Este 0 -- -- 67
2019-05-02 19:00:00 19.3 17 Este 32 Este 0 -- -- 62
2019-05-02 18:00:00 20.7 18 Este 30 Este 0 -- -- 51
2019-05-02 17:00:00 21.2 17 Este 32 Este 0 -- -- 46
2019-05-02 16:00:00 21.4 15 Este 27 Este 0 -- -- 52
2019-05-02 15:00:00 21.1 17 Este 26 Este 0 -- -- 58
2019-05-02 14:00:00 21.3 17 Este 29 Nordeste 0 -- -- 56
2019-05-02 13:00:00 20.1 19 Este 29 Sudeste 0 -- -- 56
2019-05-02 12:00:00 20.9 19 Sudeste 28 Este 0 -- -- 51
2019-05-02 11:00:00 20.7 15 Este 22 Sudeste 0 -- -- 55
2019-05-02 10:00:00 19.2 14 Este 22 Este 0 -- -- 61
2019-05-02 09:00:00 17.1 9 Norte 15 Nordeste 0 -- -- 80
2019-05-02 08:00:00 14.4 11 Nordeste 17 Nordeste 0 -- -- 87
2019-05-02 07:00:00 13.2 8 Nordeste 13 Nordeste 0 -- -- 90
2019-05-02 06:00:00 12.2 2 Norte 13 Nordeste 0 -- -- 90
2019-05-02 05:00:00 12.8 9 Nordeste 18 Nordeste 0 -- -- 89
2019-05-02 04:00:00 13.3 12 Nordeste 18 Nordeste 0 -- -- 88
2019-05-02 03:00:00 9.2 0 Calma 2 Este 0 -- -- 90
2019-05-02 02:00:00 9.8 0 Calma 3 Sudeste 0 -- -- 88
2019-05-02 01:00:00 11 0 Calma 3 Norte 0 -- -- 87
2019-05-02 00:00:00 11.9 0 Calma 3 Sudeste 0 -- -- 83
2019-05-01 23:00:00 12.9 0 Calma 3 Sudeste 0 -- -- 80
2019-05-01 22:00:00 15.3 0 Calma 8 Este 0 -- -- 78
2019-05-01 21:00:00 16.1 3 Sudeste 13 Sudeste 0 -- -- 75
2019-05-01 20:00:00 17.9 11 Sudeste 22 Sudeste 0 -- -- 65
2019-05-01 19:00:00 20.1 14 Sudeste 25 Sudeste 0 -- -- 54
2019-05-01 18:00:00 20.8 14 Sudeste 23 Sudoeste 0 -- -- 49
2019-05-01 17:00:00 20.9 12 Sur 28 Sur 0 -- -- 51
2019-05-01 16:00:00 21.1 16 Sur 27 Sur 0 -- -- 50
2019-05-01 15:00:00 21.1 15 Sur 26 Sur 0 -- -- 43
2019-05-01 14:00:00 20.7 14 Sur 23 Sur 0 -- -- 50
2019-05-01 13:00:00 20.6 14 Sudoeste 22 Sudoeste 0 -- -- 48
2019-05-01 12:00:00 19.8 8 Sur 18 Oeste 0 -- -- 56
2019-05-01 11:00:00 18.9 10 Oeste 14 Oeste 0 -- -- 65
2019-05-01 10:00:00 16.7 6 Oeste 10 Oeste 0 -- -- 73
2019-05-01 09:00:00 12.5 4 Noroeste 5 Noroeste 0 -- -- 83
2019-05-01 08:00:00 8.2 0 Calma 4 Norte 0 -- -- 92
2019-05-01 07:00:00 5.2 0 Calma 2 Sudeste 0 -- -- 92
2019-05-01 06:00:00 5.6 0 Calma 4 Norte 0 -- -- 92
2019-05-01 05:00:00 5.6 0 Calma 4 Norte 0 -- -- 91
2019-05-01 04:00:00 6.5 0 Calma 3 Norte 0 -- -- 90
2019-05-01 03:00:00 6.9 0 Calma 5 Nordeste 0 -- -- 89
2019-05-01 02:00:00 8.9 4 Nordeste 5 Nordeste 0 -- -- 92
2019-05-01 01:00:00 8.7 0 Calma 3 Noroeste 0 -- -- 85
2019-05-01 00:00:00 10.9 2 Nordeste 5 Norte 0 -- -- 87
2019-04-30 23:00:00 11.2 2 Norte 5 Sudoeste 0 -- -- 84
2019-04-30 22:00:00 12.1 4 Sur 5 Sur 0 -- -- 77
2019-04-30 21:00:00 15.7 3 Sudoeste 15 Oeste 0 -- -- 70
2019-04-30 20:00:00 17.7 10 Sudoeste 17 Oeste 0 -- -- 69
2019-04-30 19:00:00 18.2 13 Sudoeste 22 Sudoeste 0 -- -- 67
2019-04-30 18:00:00 19.4 12 Sur 23 Sur 0 -- -- 48
2019-04-30 17:00:00 19.4 15 Sur 27 Sur 0 -- -- 51
2019-04-30 16:00:00 19.6 15 Sur 28 Sur 0 -- -- 62
2019-04-30 15:00:00 19.9 18 Sur 32 Sudeste 0 -- -- 61
2019-04-30 14:00:00 20.1 18 Sudeste 31 Sudeste 0 -- -- 58
2019-04-30 13:00:00 19.9 18 Sudeste 31 Sudeste 0 -- -- 56
2019-04-30 12:00:00 20.4 14 Sudeste 24 Sur 0 -- -- 58
2019-04-30 11:00:00 19.5 10 Sudeste 19 Norte 0 -- -- 57
2019-04-30 10:00:00 16.9 9 Norte 15 Norte 0 -- -- 72
2019-04-30 09:00:00 12.8 2 Norte 4 Norte 0 -- -- 87
2019-04-30 08:00:00 8.6 0 Calma 2 Noroeste 0 -- -- 93
2019-04-30 07:00:00 5.6 0 Calma 2 Norte 0 -- -- 92
2019-04-30 06:00:00 6 0 Calma 4 Norte 0 -- -- 91
2019-04-30 05:00:00 6.6 0 Calma 4 Norte 0 -- -- 91
2019-04-30 04:00:00 7 0 Calma 3 Norte 0 -- -- 90
2019-04-30 03:00:00 7.6 2 Sudeste 3 Norte 0 -- -- 89
2019-04-30 02:00:00 8.4 0 Calma -- -- 0 -- -- 88
2019-04-30 01:00:00 8.9 0 Calma 2 Sur 0 -- -- 87
2019-04-30 00:00:00 9.8 0 Calma 2 Sudeste 0 -- -- 85
2019-04-29 23:00:00 11 3 Sudeste 5 Sudeste 0 -- -- 81
2019-04-29 22:00:00 12.8 4 Sur 5 Sur 0 -- -- 76
2019-04-29 21:00:00 15.4 3 Sur 13 Sur 0 -- -- 72
2019-04-29 20:00:00 17.3 10 Sur 15 Sur 0 -- -- 65
2019-04-29 19:00:00 17.9 11 Sur 22 Sur 0 -- -- 62
2019-04-29 18:00:00 18.9 11 Sur 22 Sur 0 -- -- 57
2019-04-29 17:00:00 19.5 10 Sudoeste 26 Sudoeste 0 -- -- 54
2019-04-29 16:00:00 19.7 14 Sur 33 Sudeste 0 -- -- 56
2019-04-29 15:00:00 19.5 17 Sur 29 Sur 0 -- -- 55
2019-04-29 14:00:00 19.9 19 Sur 32 Sudeste 0 -- -- 54
2019-04-29 13:00:00 19.7 19 Sur 29 Sudeste 0 -- -- 54
2019-04-29 12:00:00 19.4 19 Sudeste 32 Sur 0 -- -- 53
2019-04-29 11:00:00 19 8 Este 21 Sudeste 0 -- -- 55
2019-04-29 10:00:00 17.2 8 Este 18 Sudeste 0 -- -- 65
2019-04-29 09:00:00 14.3 3 Norte 5 Norte 0 -- -- 88
2019-04-29 08:00:00 10.6 2 Norte 5 Nordeste 0 -- -- 95
2019-04-29 07:00:00 7.4 0 Calma 3 Norte 0 -- -- 94
2019-04-29 06:00:00 7.6 0 Calma 4 Norte 0 -- -- 93
2019-04-29 05:00:00 8.4 0 Calma 5 Sudeste 0 -- -- 93
2019-04-29 04:00:00 9.4 2 Este 5 Nordeste 0 -- -- 92
2019-04-29 03:00:00 10.2 2 Este 4 Sudeste 0 -- -- 91
2019-04-29 02:00:00 11.9 3 Norte 5 Nordeste 0 -- -- 93
2019-04-29 01:00:00 10.7 2 Este 5 Este 0 -- -- 90
2019-04-29 00:00:00 12.6 3 Nordeste 12 Este 0 -- -- 89
2019-04-28 23:00:00 13.4 6 Este 14 Este 0 -- -- 88
2019-04-28 22:00:00 13.8 8 Este 13 Este 0 -- -- 86
2019-04-28 21:00:00 14.9 10 Sudeste 22 Sudeste 0 -- -- 82
2019-04-28 20:00:00 16.2 15 Sudeste 26 Sudeste 0 -- -- 77
2019-04-28 19:00:00 17.2 18 Sudeste 30 Sudeste 0 -- -- 73
2019-04-28 18:00:00 17.8 18 Sudeste 31 Sudeste 0 -- -- 70
2019-04-28 17:00:00 18.6 22 Sudeste 35 Sudeste 0 -- -- 68
2019-04-28 16:00:00 18.3 22 Sudeste 39 Sudeste 0 -- -- 67
2019-04-28 15:00:00 18.8 24 Sudeste 42 Este 0 -- -- 67
2019-04-28 14:00:00 19.1 28 Sudeste 40 Sudeste 0 -- -- 67
2019-04-28 13:00:00 19.2 24 Sudeste 33 Sudeste 0 -- -- 64
2019-04-28 12:00:00 19.4 18 Sudeste 30 Sudeste 0 -- -- 65
2019-04-28 11:00:00 19.1 9 Oeste 14 Sudoeste 0 -- -- 69
2019-04-28 10:00:00 17.6 3 Oeste 6 Oeste 0 -- -- 69
2019-04-28 09:00:00 13 0 Calma 5 Norte 0 -- -- 88
2019-04-28 08:00:00 8.9 0 Calma 4 Norte 0 -- -- 95
2019-04-28 07:00:00 6.1 0 Calma -- -- 0 -- -- 94
2019-04-28 06:00:00 6.7 0 Calma 3 Sudeste 0 -- -- 94
2019-04-28 05:00:00 7.8 0 Calma 4 Norte 0 -- -- 94
2019-04-28 04:00:00 9 3 Norte 5 Norte 0 -- -- 94
2019-04-28 03:00:00 8.7 0 Calma 3 Sudeste 0 -- -- 93
2019-04-28 02:00:00 9.8 0 Calma 4 Sudeste 0 -- -- 93
2019-04-28 01:00:00 10.3 4 Sudeste 8 Sudeste 0 -- -- 93
2019-04-28 00:00:00 10.8 3 Sudeste 4 Sudeste 0 -- -- 90
2019-04-27 23:00:00 12.7 0 Calma 6 Oeste 0 -- -- 86
2019-04-27 22:00:00 15.7 6 Oeste 12 Sudoeste 0 -- -- 86
2019-04-27 21:00:00 16.2 5 Sudoeste 19 Sudoeste 0 -- -- 81
2019-04-27 20:00:00 17.7 17 Oeste 30 Oeste 0 -- -- 74
2019-04-27 19:00:00 18.6 18 Oeste 31 Sudoeste 0 -- -- 69
2019-04-27 18:00:00 18.9 22 Oeste 33 Oeste 0 -- -- 67
2019-04-27 17:00:00 18.8 23 Oeste 32 Oeste 0 -- -- 73
2019-04-27 16:00:00 18.8 18 Sudoeste 33 Oeste 0 -- -- 75
2019-04-27 15:00:00 18.8 17 Sudoeste 32 Sudoeste 0 -- -- 76
2019-04-27 14:00:00 18.4 20 Sudoeste 32 Sudoeste 0 -- -- 72
2019-04-27 13:00:00 18.7 16 Sudoeste 29 Sudoeste 0 -- -- 67
2019-04-27 12:00:00 18.6 13 Sudoeste 21 Oeste 0 -- -- 66
2019-04-27 11:00:00 18 12 Oeste 17 Oeste 0 -- -- 70
2019-04-27 10:00:00 17 5 Sudoeste 9 Sudoeste 0 -- -- 77
2019-04-27 09:00:00 12.7 0 Calma 3 Noroeste 0 -- -- 90
2019-04-27 08:00:00 8.4 0 Calma 2 Sur 0 -- -- 96
2019-04-27 07:00:00 5.9 0 Calma 4 Norte 0 -- -- 94
2019-04-27 06:00:00 5.5 0 Calma 2 Norte 0 -- -- 94
2019-04-27 05:00:00 6.3 0 Calma 4 Norte 0 -- -- 93
2019-04-27 04:00:00 7 0 Calma 3 Sudeste 0 -- -- 93
2019-04-27 03:00:00 8 0 Calma 5 Norte 0 -- -- 92
2019-04-27 02:00:00 10 3 Norte 5 Norte 0 -- -- 93
2019-04-27 01:00:00 10.1 3 Sudeste 6 Sudeste 0 -- -- 92
2019-04-27 00:00:00 11.2 5 Sudeste 8 Sudeste 0 -- -- 91
2019-04-26 23:00:00 12.1 6 Sudeste 8 Sudeste 0 -- -- 89
2019-04-26 22:00:00 14.5 4 Sudeste 11 Sudeste 0 -- -- 85
2019-04-26 21:00:00 15.8 9 Sudeste 24 Oeste 0 -- -- 77
2019-04-26 20:00:00 17.7 19 Oeste 28 Oeste 0 -- -- 74
2019-04-26 19:00:00 19.7 20 Oeste 31 Oeste 0 -- -- 56
2019-04-26 18:00:00 18.7 24 Oeste 37 Oeste 0 -- -- 65
2019-04-26 17:00:00 19 19 Sudoeste 37 Sudoeste 0 -- -- 64
2019-04-26 16:00:00 19.4 26 Oeste 38 Oeste 0 -- -- 61
2019-04-26 15:00:00 18.9 28 Oeste 41 Oeste 0 -- -- 66
2019-04-26 14:00:00 19.2 22 Oeste 37 Sudoeste 0 -- -- 67
2019-04-26 13:00:00 19.5 19 Sudoeste 32 Oeste 0 -- -- 61
2019-04-26 12:00:00 18.9 24 Oeste 33 Oeste 0 -- -- 65
2019-04-26 11:00:00 18.8 21 Oeste 32 Noroeste 0 -- -- 67
2019-04-26 10:00:00 17.9 18 Noroeste 29 Noroeste 0 -- -- 55
2019-04-26 09:00:00 16.1 13 Noroeste 19 Noroeste 0 -- -- 73
2019-04-26 08:00:00 14.6 10 Noroeste 16 Oeste 0 -- -- 78
2019-04-26 07:00:00 14.2 14 Oeste 24 Oeste 0 -- -- 78
2019-04-26 06:00:00 14.9 15 Oeste 24 Oeste 0 -- -- 76
2019-04-26 05:00:00 15.4 15 Oeste 26 Oeste 0 -- -- 74
2019-04-26 04:00:00 15.9 14 Oeste 26 Oeste 0 -- -- 78
2019-04-26 03:00:00 16.2 14 Oeste 22 Oeste 0 -- -- 88
2019-04-26 02:00:00 16.1 7 Oeste 17 Oeste 0 -- -- 89
2019-04-26 01:00:00 15.9 12 Oeste 18 Oeste 0 -- -- 91
2019-04-26 00:00:00 15.8 7 Sudoeste 19 Oeste 0 -- -- 90